Time;durP1;ratioP1;P1;durP2;ratioP2;P2;SDS_P1;SDS_P2;PMS_P1;PMS_P2;Temp;Humidity;BMP_temperature;BMP_pressure;BME280_temperature;BME280_humidity;BME280_pressure;Samples;Min_cycle;Max_cycle;Signal;HPM_P1;HPM_P2
2024/01/14 00:00:37;;;;;;;;;;;;;;;;;;5055158;28;19908;-69
2024/01/14 00:03:03;;;;;;;;;;;;;;;;;;5053711;28;19978;-69
2024/01/14 00:05:29;;;;;;;;;;;;;;;;;;5054990;28;20431;-70
2024/01/14 00:07:56;;;;;;;;;;;;;;;;;;5054534;28;19909;-69
2024/01/14 00:10:22;;;;;;;;;;;;;;;;;;5054854;28;20324;-69
2024/01/14 00:12:48;;;;;;;;;;;;;;;;;;5054818;28;19909;-69
2024/01/14 00:15:14;;;;;;;;;;;;;;;;;;5051416;28;19920;-70
2024/01/14 00:17:40;;;;;;;;;;;;;;;;;;5054705;28;19915;-69
2024/01/14 00:20:07;;;;;;;;;;;;;;;;;;5053418;28;19913;-69
2024/01/14 00:22:33;;;;;;;;;;;;;;;;;;5054231;28;19909;-69
2024/01/14 00:24:59;;;;;;;;;;;;;;;;;;5054603;28;19978;-69
2024/01/14 00:27:25;;;;;;;;;;;;;;;;;;5054481;28;20003;-69
2024/01/14 00:29:51;;;;;;;;;;;;;;;;;;5054047;28;19909;-68
2024/01/14 00:32:17;;;;;;;;;;;;;;;;;;5054640;28;19960;-70
2024/01/14 00:34:43;;;;;;;;;;;;;;;;;;5054492;28;19944;-69
2024/01/14 00:37:10;;;;;;;;;;;;;;;;;;5054130;28;19909;-70
2024/01/14 00:39:36;;;;;;;;;;;;;;;;;;5054432;28;20042;-69
2024/01/14 00:42:02;;;;;;;;;;;;;;;;;;5054409;28;19962;-69
2024/01/14 00:44:28;;;;;;;;;;;;;;;;;;5053873;28;19924;-69
2024/01/14 00:46:54;;;;;;;;;;;;;;;;;;5052948;28;20450;-68
2024/01/14 00:49:20;;;;;;;;;;;;;;;;;;5054135;28;19940;-70
2024/01/14 00:51:46;;;;;;;;;;;;;;;;;;5054186;28;20357;-70
2024/01/14 00:54:12;;;;;;;;;;;;;;;;;;5052812;28;20359;-70
2024/01/14 00:56:37;;;;;;;;;;;;;;;;;;5053459;28;19920;-68
2024/01/14 00:59:03;;;;;;;;;;;;;;;;;;5052798;28;20007;-69
2024/01/14 01:01:30;;;;;;;;;;;;;;;;;;5053972;28;19971;-68
2024/01/14 01:03:56;;;;;;;;;;;;;;;;;;5053503;28;20008;-68
2024/01/14 01:06:22;;;;;;;;;;;;;;;;;;5053937;28;19948;-69
2024/01/14 01:08:48;;;;;;;;;;;;;;;;;;5053165;28;19963;-69
2024/01/14 01:11:14;;;;;;;;;;;;;;;;;;5053604;28;19912;-69
2024/01/14 01:13:39;;;;;;;;;;;;;;;;;;5054029;28;19947;-69
2024/01/14 01:16:05;;;;;;;;;;;;;;;;;;5053847;28;19909;-69
2024/01/14 01:18:31;;;;;;;;;;;;;;;;;;5052082;28;19908;-69
2024/01/14 01:20:57;;;;;;;;;;;;;;;;;;5053870;28;19991;-69
2024/01/14 01:23:23;;;;;;;;;;;;;;;;;;5053625;28;19982;-70
2024/01/14 01:25:49;;;;;;;;;;;;;;;;;;5053354;28;19916;-69
2024/01/14 01:28:15;;;;;;;;;;;;;;;;;;5053665;28;19909;-69
2024/01/14 01:30:41;;;;;;;;;;;;;;;;;;5053642;28;19991;-69
2024/01/14 01:33:07;;;;;;;;;;;;;;;;;;5051987;28;19916;-69
2024/01/14 01:35:33;;;;;;;;;;;;;;;;;;5053741;28;19915;-69
2024/01/14 01:37:59;;;;;;;;;;;;;;;;;;5053633;28;19948;-69
2024/01/14 01:40:25;;;;;;;;;;;;;;;;;;5053201;28;19909;-69
2024/01/14 01:42:51;;;;;;;;;;;;;;;;;;5053426;28;20345;-69
2024/01/14 01:45:17;;;;;;;;;;;;;;;;;;5053502;28;19978;-69
2024/01/14 01:47:43;;;;;;;;;;;;;;;;;;5053149;28;19915;-69
2024/01/14 01:50:08;;;;;;;;;;;;;;;;;;5052236;28;19909;-69
2024/01/14 01:52:34;;;;;;;;;;;;;;;;;;5053596;28;19908;-69
2024/01/14 01:55:00;;;;;;;;;;;;;;;;;;5053005;28;19909;-68
2024/01/14 01:57:26;;;;;;;;;;;;;;;;;;5052197;28;19913;-69
2024/01/14 01:59:52;;;;;;;;;;;;;;;;;;5053017;28;19931;-69
2024/01/14 02:02:18;;;;;;;;;;;;;;;;;;5053285;28;19909;-69
2024/01/14 02:04:44;;;;;;;;;;;;;;;;;;5053370;28;19921;-69
2024/01/14 02:07:10;;;;;;;;;;;;;;;;;;5053040;28;19931;-69
2024/01/14 02:09:36;;;;;;;;;;;;;;;;;;5053346;28;20365;-69
2024/01/14 02:12:02;;;;;;;;;;;;;;;;;;5053382;28;20369;-69
2024/01/14 02:14:28;;;;;;;;;;;;;;;;;;5052829;28;19971;-69
2024/01/14 02:16:54;;;;;;;;;;;;;;;;;;5053248;28;19975;-69
2024/01/14 02:19:20;;;;;;;;;;;;;;;;;;5054205;28;19909;-69
2024/01/14 02:21:46;;;;;;;;;;;;;;;;;;5055210;28;19958;-69
2024/01/14 02:24:12;;;;;;;;;;;;;;;;;;5056873;28;19917;-69
2024/01/14 02:26:38;;;;;;;;;;;;;;;;;;5056946;28;19909;-69
2024/01/14 02:29:06;;;;;;;;;;;;;;;;;;5056319;28;19968;-69
2024/01/14 02:31:32;;;;;;;;;;;;;;;;;;5056829;28;19992;-69
2024/01/14 02:33:58;;;;;;;;;;;;;;;;;;5056708;28;19909;-69
2024/01/14 02:36:24;;;;;;;;;;;;;;;;;;5056271;28;19917;-69
2024/01/14 02:38:50;;;;;;;;;;;;;;;;;;5056665;28;19978;-69
2024/01/14 02:41:16;;;;;;;;;;;;;;;;;;5052768;28;19916;-69
2024/01/14 02:43:42;;;;;;;;;;;;;;;;;;5052150;28;19917;-69
2024/01/14 02:46:08;;;;;;;;;;;;;;;;;;5056135;28;19909;-69
2024/01/14 02:48:34;;;;;;;;;;;;;;;;;;5056440;28;19952;-69
2024/01/14 02:51:00;;;;;;;;;;;;;;;;;;5055977;28;19909;-69
2024/01/14 02:53:26;;;;;;;;;;;;;;;;;;5056587;28;19921;-70
2024/01/14 02:55:52;;;;;;;;;;;;;;;;;;5056150;28;19921;-68
2024/01/14 02:58:18;;;;;;;;;;;;;;;;;;5055930;28;19908;-69
2024/01/14 03:00:44;;;;;;;;;;;;;;;;;;5056228;28;20334;-69
2024/01/14 03:03:10;;;;;;;;;;;;;;;;;;5055631;28;20276;-69
2024/01/14 03:05:35;;;;;;;;;;;;;;;;;;5056171;28;19920;-69
2024/01/14 03:08:01;;;;;;;;;;;;;;;;;;5054849;28;19917;-69
2024/01/14 03:10:27;;;;;;;;;;;;;;;;;;5055707;28;19909;-69
2024/01/14 03:12:53;;;;;;;;;;;;;;;;;;5056059;28;20078;-69
2024/01/14 03:15:19;;;;;;;;;;;;;;;;;;5055970;28;19909;-69
2024/01/14 03:17:45;;;;;;;;;;;;;;;;;;5055511;28;19954;-69
2024/01/14 03:20:11;;;;;;;;;;;;;;;;;;5055939;28;20001;-69
2024/01/14 03:22:37;;;;;;;;;;;;;;;;;;5054583;28;19909;-69
2024/01/14 03:25:03;;;;;;;;;;;;;;;;;;5055362;28;19969;-68
2024/01/14 03:27:29;;;;;;;;;;;;;;;;;;5053957;28;20008;-69
2024/01/14 03:29:55;;;;;;;;;;;;;;;;;;5051817;28;19909;-69
2024/01/14 03:32:21;;;;;;;;;;;;;;;;;;5054110;28;19916;-69
2024/01/14 03:34:47;;;;;;;;;;;;;;;;;;5055606;28;19913;-69
2024/01/14 03:37:13;;;;;;;;;;;;;;;;;;5055532;28;19913;-69
2024/01/14 03:39:39;;;;;;;;;;;;;;;;;;5055097;28;19909;-69
2024/01/14 03:42:05;;;;;;;;;;;;;;;;;;5054156;28;19923;-69
2024/01/14 03:44:31;;;;;;;;;;;;;;;;;;5055369;28;19916;-69
2024/01/14 03:46:57;;;;;;;;;;;;;;;;;;5053675;28;19915;-69
2024/01/14 03:49:23;;;;;;;;;;;;;;;;;;5054058;28;19913;-69
2024/01/14 03:51:49;;;;;;;;;;;;;;;;;;5055308;28;19916;-69
2024/01/14 03:54:15;;;;;;;;;;;;;;;;;;5054808;28;20333;-69
2024/01/14 03:56:40;;;;;;;;;;;;;;;;;;5053710;28;19925;-69
2024/01/14 03:59:06;;;;;;;;;;;;;;;;;;5055222;28;19909;-69
2024/01/14 04:01:32;;;;;;;;;;;;;;;;;;5054665;28;19916;-69
2024/01/14 04:03:58;;;;;;;;;;;;;;;;;;5054911;28;19916;-69
2024/01/14 04:06:24;;;;;;;;;;;;;;;;;;5054937;28;19920;-69
2024/01/14 04:08:50;;;;;;;;;;;;;;;;;;5053663;28;19955;-69
2024/01/14 04:11:16;;;;;;;;;;;;;;;;;;5055133;28;19909;-69
2024/01/14 04:13:42;;;;;;;;;;;;;;;;;;5054478;28;19909;-69
2024/01/14 04:16:09;;;;;;;;;;;;;;;;;;5054916;28;19955;-69
2024/01/14 04:18:35;;;;;;;;;;;;;;;;;;5054780;28;19966;-69
2024/01/14 04:21:01;;;;;;;;;;;;;;;;;;5054478;28;19916;-69
2024/01/14 04:23:27;;;;;;;;;;;;;;;;;;5054948;28;19921;-69
2024/01/14 04:25:53;;;;;;;;;;;;;;;;;;5053338;28;19955;-69
2024/01/14 04:28:18;;;;;;;;;;;;;;;;;;5052883;28;19909;-69
2024/01/14 04:30:44;;;;;;;;;;;;;;;;;;5054534;28;19909;-69
2024/01/14 04:33:10;;;;;;;;;;;;;;;;;;5054580;28;19909;-69
2024/01/14 04:35:36;;;;;;;;;;;;;;;;;;5054014;28;20373;-69
2024/01/14 04:38:02;;;;;;;;;;;;;;;;;;5054729;28;20372;-69
2024/01/14 04:40:28;;;;;;;;;;;;;;;;;;5054336;28;20361;-69
2024/01/14 04:42:54;;;;;;;;;;;;;;;;;;5052574;28;20050;-69
2024/01/14 04:45:20;;;;;;;;;;;;;;;;;;5053050;28;19913;-69
2024/01/14 04:47:46;;;;;;;;;;;;;;;;;;5054477;28;19909;-69
2024/01/14 04:50:12;;;;;;;;;;;;;;;;;;5053983;28;19999;-69
2024/01/14 04:52:38;;;;;;;;;;;;;;;;;;5054284;28;19959;-69
2024/01/14 04:55:04;;;;;;;;;;;;;;;;;;5054130;28;19913;-69
2024/01/14 04:57:30;;;;;;;;;;;;;;;;;;5053802;28;19974;-69
2024/01/14 04:59:56;;;;;;;;;;;;;;;;;;5054178;28;19909;-69
2024/01/14 05:02:22;;;;;;;;;;;;;;;;;;5054064;28;20455;-69
2024/01/14 05:04:48;;;;;;;;;;;;;;;;;;5053599;28;20321;-69
2024/01/14 05:07:14;;;;;;;;;;;;;;;;;;5053948;28;20281;-69
2024/01/14 05:09:40;;;;;;;;;;;;;;;;;;5053490;28;19915;-69
2024/01/14 05:12:06;;;;;;;;;;;;;;;;;;5053822;28;19909;-69
2024/01/14 05:14:32;;;;;;;;;;;;;;;;;;5054074;28;19962;-69
2024/01/14 05:16:58;;;;;;;;;;;;;;;;;;5053490;28;19916;-69
2024/01/14 05:19:24;;;;;;;;;;;;;;;;;;5052523;28;20336;-69
2024/01/14 05:21:50;;;;;;;;;;;;;;;;;;5052506;28;20289;-69
2024/01/14 05:24:16;;;;;;;;;;;;;;;;;;5053539;28;19917;-69
2024/01/14 05:26:42;;;;;;;;;;;;;;;;;;5053732;28;20358;-69
2024/01/14 05:29:08;;;;;;;;;;;;;;;;;;5053652;28;19908;-69
2024/01/14 05:31:36;;;;;;;;;;;;;;;;;;5053283;28;20004;-69
2024/01/14 05:34:02;;;;;;;;;;;;;;;;;;5053718;28;19917;-69
2024/01/14 05:36:28;;;;;;;;;;;;;;;;;;5053633;28;20388;-69
2024/01/14 05:38:54;;;;;;;;;;;;;;;;;;5053160;28;19935;-69
2024/01/14 05:41:20;;;;;;;;;;;;;;;;;;5053559;28;19913;-69
2024/01/14 05:43:46;;;;;;;;;;;;;;;;;;5053491;28;19955;-69
2024/01/14 05:46:12;;;;;;;;;;;;;;;;;;5053263;28;20277;-69
2024/01/14 05:48:38;;;;;;;;;;;;;;;;;;5053499;28;20226;-69
2024/01/14 05:51:04;;;;;;;;;;;;;;;;;;5053494;28;19974;-69
2024/01/14 05:53:30;;;;;;;;;;;;;;;;;;5053067;28;19917;-69
2024/01/14 05:55:57;;;;;;;;;;;;;;;;;;5056998;28;19967;-69
2024/01/14 05:58:23;;;;;;;;;;;;;;;;;;5057388;28;19915;-69
2024/01/14 06:00:49;;;;;;;;;;;;;;;;;;5056804;28;19909;-69
2024/01/14 06:03:15;;;;;;;;;;;;;;;;;;5057294;28;19998;-69
2024/01/14 06:05:41;;;;;;;;;;;;;;;;;;5057297;28;19910;-69
2024/01/14 06:08:07;;;;;;;;;;;;;;;;;;5056843;28;19908;-69
2024/01/14 06:10:33;;;;;;;;;;;;;;;;;;5057120;28;19909;-69
2024/01/14 06:12:59;;;;;;;;;;;;;;;;;;5056766;28;19916;-69
2024/01/14 06:15:25;;;;;;;;;;;;;;;;;;5057212;28;19909;-68
2024/01/14 06:17:51;;;;;;;;;;;;;;;;;;5057383;28;19959;-69
2024/01/14 06:20:17;;;;;;;;;;;;;;;;;;5057222;28;20254;-68
2024/01/14 06:22:43;;;;;;;;;;;;;;;;;;5056925;28;19913;-68
2024/01/14 06:25:09;;;;;;;;;;;;;;;;;;5055581;28;20376;-68
2024/01/14 06:27:35;;;;;;;;;;;;;;;;;;5056557;28;20399;-68
2024/01/14 06:30:03;;;;;;;;;;;;;;;;;;5056858;28;20426;-68
2024/01/14 06:32:29;;;;;;;;;;;;;;;;;;5055483;28;19908;-68
2024/01/14 06:34:55;;;;;;;;;;;;;;;;;;5056705;28;20418;-68
2024/01/14 06:37:21;;;;;;;;;;;;;;;;;;5055483;28;20362;-68
2024/01/14 06:39:47;;;;;;;;;;;;;;;;;;5056658;28;20293;-68
2024/01/14 06:42:12;;;;;;;;;;;;;;;;;;5056469;28;20271;-68
2024/01/14 06:44:38;;;;;;;;;;;;;;;;;;5056465;28;19986;-68
2024/01/14 06:47:04;;;;;;;;;;;;;;;;;;5055286;28;19909;-68
2024/01/14 06:49:30;;;;;;;;;;;;;;;;;;5056117;28;20384;-68
2024/01/14 06:51:56;;;;;;;;;;;;;;;;;;5055252;28;19909;-68
2024/01/14 06:54:23;;;;;;;;;;;;;;;;;;5055174;28;19996;-68
2024/01/14 06:56:49;;;;;;;;;;;;;;;;;;5055794;28;19967;-68
2024/01/14 06:59:17;;;;;;;;;;;;;;;;;;5056249;28;19909;-68
2024/01/14 07:01:43;;;;;;;;;;;;;;;;;;5056861;28;20320;-69
2024/01/14 07:04:09;;;;;;;;;;;;;;;;;;5055647;28;19917;-69
2024/01/14 07:06:35;;;;;;;;;;;;;;;;;;5054952;28;19908;-69
2024/01/14 07:09:01;;;;;;;;;;;;;;;;;;5054772;28;19919;-69
2024/01/14 07:11:27;;;;;;;;;;;;;;;;;;5055736;28;19915;-69
2024/01/14 07:13:53;;;;;;;;;;;;;;;;;;5056010;28;19931;-69
2024/01/14 07:16:19;;;;;;;;;;;;;;;;;;5055552;28;19913;-69
2024/01/14 07:18:45;;;;;;;;;;;;;;;;;;5055903;28;19932;-69
2024/01/14 07:21:11;;;;;;;;;;;;;;;;;;5055887;28;19997;-69
2024/01/14 07:23:37;;;;;;;;;;;;;;;;;;5055398;28;19920;-69
2024/01/14 07:26:04;;;;;;;;;;;;;;;;;;5055816;28;20281;-69
2024/01/14 07:28:30;;;;;;;;;;;;;;;;;;5055769;28;19916;-68
2024/01/14 07:30:56;;;;;;;;;;;;;;;;;;5055203;28;19909;-69
2024/01/14 07:33:22;;;;;;;;;;;;;;;;;;5055641;28;19909;-69
2024/01/14 07:35:48;;;;;;;;;;;;;;;;;;5054357;28;19915;-69
2024/01/14 07:38:14;;;;;;;;;;;;;;;;;;5055142;28;19920;-69
2024/01/14 07:40:41;;;;;;;;;;;;;;;;;;5055542;28;19943;-68
2024/01/14 07:43:07;;;;;;;;;;;;;;;;;;5055561;28;19909;-69
2024/01/14 07:45:33;;;;;;;;;;;;;;;;;;5055119;28;19913;-69
2024/01/14 07:47:59;;;;;;;;;;;;;;;;;;5055590;28;19954;-69
2024/01/14 07:50:25;;;;;;;;;;;;;;;;;;5054101;28;20011;-69
2024/01/14 07:52:51;;;;;;;;;;;;;;;;;;5054870;28;19971;-69
2024/01/14 07:55:17;;;;;;;;;;;;;;;;;;5055113;28;19909;-69
2024/01/14 07:57:43;;;;;;;;;;;;;;;;;;5053979;28;19913;-69
2024/01/14 08:00:10;;;;;;;;;;;;;;;;;;5053429;28;20254;-69
2024/01/14 08:02:36;;;;;;;;;;;;;;;;;;5055120;28;20266;-69
2024/01/14 08:05:02;;;;;;;;;;;;;;;;;;5055246;28;20016;-69
2024/01/14 08:07:27;;;;;;;;;;;;;;;;;;5053362;28;19912;-70
2024/01/14 08:09:53;;;;;;;;;;;;;;;;;;5055070;28;19920;-69
2024/01/14 08:12:19;;;;;;;;;;;;;;;;;;5053635;28;19909;-69
2024/01/14 08:14:45;;;;;;;;;;;;;;;;;;5054428;28;20005;-69
2024/01/14 08:17:11;;;;;;;;;;;;;;;;;;5053334;28;19909;-69
2024/01/14 08:19:37;;;;;;;;;;;;;;;;;;5053329;28;19909;-69
2024/01/14 08:22:03;;;;;;;;;;;;;;;;;;5054788;28;20004;-69
2024/01/14 08:24:29;;;;;;;;;;;;;;;;;;5054815;28;19917;-70
2024/01/14 08:26:55;;;;;;;;;;;;;;;;;;5054399;28;19909;-69
2024/01/14 08:29:21;;;;;;;;;;;;;;;;;;5053252;28;19909;-69
2024/01/14 08:31:47;;;;;;;;;;;;;;;;;;5054624;28;19951;-69
2024/01/14 08:34:13;;;;;;;;;;;;;;;;;;5052804;28;19909;-69
2024/01/14 08:36:39;;;;;;;;;;;;;;;;;;5053266;28;19913;-69
2024/01/14 08:39:05;;;;;;;;;;;;;;;;;;5054493;28;19936;-69
2024/01/14 08:41:31;;;;;;;;;;;;;;;;;;5054164;28;20322;-69
2024/01/14 08:43:59;;;;;;;;;;;;;;;;;;5054199;28;19921;-69
2024/01/14 08:46:25;;;;;;;;;;;;;;;;;;5054214;28;19909;-69
2024/01/14 08:48:51;;;;;;;;;;;;;;;;;;5053884;28;20269;-69
2024/01/14 08:51:17;;;;;;;;;;;;;;;;;;5054149;28;20281;-69
2024/01/14 08:53:43;;;;;;;;;;;;;;;;;;5054095;28;20020;-69
2024/01/14 08:56:09;;;;;;;;;;;;;;;;;;5053469;28;19924;-69
2024/01/14 08:58:35;;;;;;;;;;;;;;;;;;5054061;28;19916;-69
2024/01/14 09:01:01;;;;;;;;;;;;;;;;;;5054043;28;19948;-69
2024/01/14 09:03:27;;;;;;;;;;;;;;;;;;5053533;28;20390;-70
2024/01/14 09:05:53;;;;;;;;;;;;;;;;;;5052694;28;19912;-70
2024/01/14 09:08:19;;;;;;;;;;;;;;;;;;5053973;28;20000;-70
2024/01/14 09:10:47;;;;;;;;;;;;;;;;;;5053515;28;20395;-71
2024/01/14 09:13:12;;;;;;;;;;;;;;;;;;5053744;28;19909;-70
2024/01/14 09:15:38;;;;;;;;;;;;;;;;;;5053782;28;19916;-70
2024/01/14 09:18:04;;;;;;;;;;;;;;;;;;5053379;28;19909;-70
2024/01/14 09:20:30;;;;;;;;;;;;;;;;;;5053764;28;19959;-70
2024/01/14 09:22:56;;;;;;;;;;;;;;;;;;5053316;28;19909;-70
2024/01/14 09:25:22;;;;;;;;;;;;;;;;;;5052392;28;19918;-70
2024/01/14 09:27:48;;;;;;;;;;;;;;;;;;5053820;28;20373;-70
2024/01/14 09:30:14;;;;;;;;;;;;;;;;;;5051411;28;20423;-70
2024/01/14 09:32:40;;;;;;;;;;;;;;;;;;5053703;28;19915;-71
2024/01/14 09:35:06;;;;;;;;;;;;;;;;;;5053611;28;19909;-71
2024/01/14 09:37:32;;;;;;;;;;;;;;;;;;5053179;28;19913;-70
2024/01/14 09:39:58;;;;;;;;;;;;;;;;;;5053506;28;19915;-70
2024/01/14 09:42:24;;;;;;;;;;;;;;;;;;5052206;28;19960;-70
2024/01/14 09:44:51;;;;;;;;;;;;;;;;;;5053020;28;19971;-70
2024/01/14 09:47:17;;;;;;;;;;;;;;;;;;5053853;28;19931;-70
2024/01/14 09:49:43;;;;;;;;;;;;;;;;;;5053474;28;19909;-70
2024/01/14 09:52:09;;;;;;;;;;;;;;;;;;5051752;28;19908;-70
2024/01/14 09:54:35;;;;;;;;;;;;;;;;;;5053383;28;20300;-70
2024/01/14 09:57:01;;;;;;;;;;;;;;;;;;5053165;28;19921;-70
2024/01/14 09:59:27;;;;;;;;;;;;;;;;;;5053041;28;20006;-70
2024/01/14 10:01:53;;;;;;;;;;;;;;;;;;5053679;28;19908;-70
2024/01/14 10:04:20;;;;;;;;;;;;;;;;;;5053228;28;20274;-70
2024/01/14 10:06:46;;;;;;;;;;;;;;;;;;5052952;28;20375;-70
2024/01/14 10:09:12;;;;;;;;;;;;;;;;;;5053314;28;19996;-70
2024/01/14 10:11:38;;;;;;;;;;;;;;;;;;5052101;28;20350;-70
2024/01/14 10:14:04;;;;;;;;;;;;;;;;;;5052830;28;19920;-70
2024/01/14 10:16:30;;;;;;;;;;;;;;;;;;5053226;28;19909;-70
2024/01/14 10:18:55;;;;;;;;;;;;;;;;;;5053307;28;19923;-70
2024/01/14 10:21:21;;;;;;;;;;;;;;;;;;5051573;28;19909;-71
2024/01/14 10:23:47;;;;;;;;;;;;;;;;;;5053137;28;20364;-70
2024/01/14 10:26:14;;;;;;;;;;;;;;;;;;5052807;28;20473;-70
2024/01/14 10:28:40;;;;;;;;;;;;;;;;;;5053097;28;19908;-70
2024/01/14 10:31:06;;;;;;;;;;;;;;;;;;5053222;28;19909;-70
2024/01/14 10:33:32;;;;;;;;;;;;;;;;;;5052662;28;20295;-70
2024/01/14 10:35:58;;;;;;;;;;;;;;;;;;5053082;28;19909;-70
2024/01/14 10:38:25;;;;;;;;;;;;;;;;;;5053648;28;20413;-70
2024/01/14 10:40:51;;;;;;;;;;;;;;;;;;5054392;28;19915;-70
2024/01/14 10:43:17;;;;;;;;;;;;;;;;;;5055309;28;19908;-70
2024/01/14 10:45:43;;;;;;;;;;;;;;;;;;5056947;28;19913;-70
2024/01/14 10:48:09;;;;;;;;;;;;;;;;;;5056120;28;20345;-70
2024/01/14 10:50:36;;;;;;;;;;;;;;;;;;5056483;28;20280;-70
2024/01/14 10:53:02;;;;;;;;;;;;;;;;;;5056431;28;20327;-70
2024/01/14 10:55:27;;;;;;;;;;;;;;;;;;5056145;28;19920;-69
2024/01/14 10:57:53;;;;;;;;;;;;;;;;;;5056362;28;19924;-70
2024/01/14 11:00:19;;;;;;;;;;;;;;;;;;5055016;28;19948;-70
2024/01/14 11:02:45;;;;;;;;;;;;;;;;;;5054640;28;19956;-70
2024/01/14 11:05:12;;;;;;;;;;;;;;;;;;5056154;28;19959;-70
2024/01/14 11:07:38;;;;;;;;;;;;;;;;;;5056135;28;19912;-71
2024/01/14 11:10:04;;;;;;;;;;;;;;;;;;5055751;28;19912;-70
2024/01/14 11:12:30;;;;;;;;;;;;;;;;;;5054779;28;19909;-70
2024/01/14 11:14:56;;;;;;;;;;;;;;;;;;5056128;28;19916;-70
2024/01/14 11:17:22;;;;;;;;;;;;;;;;;;5055619;28;19912;-70
2024/01/14 11:19:48;;;;;;;;;;;;;;;;;;5055995;28;19916;-70
2024/01/14 11:22:15;;;;;;;;;;;;;;;;;;5054577;28;19913;-70
2024/01/14 11:24:41;;;;;;;;;;;;;;;;;;5055389;28;19917;-70
2024/01/14 11:27:07;;;;;;;;;;;;;;;;;;5055844;28;20383;-70
2024/01/14 11:29:33;;;;;;;;;;;;;;;;;;5055462;28;20250;-69
2024/01/14 11:31:59;;;;;;;;;;;;;;;;;;5055725;28;19943;-70
2024/01/14 11:34:25;;;;;;;;;;;;;;;;;;5055605;28;19909;-69
2024/01/14 11:36:51;;;;;;;;;;;;;;;;;;5053882;28;20301;-70
2024/01/14 11:39:17;;;;;;;;;;;;;;;;;;5055558;28;20391;-70
2024/01/14 11:41:43;;;;;;;;;;;;;;;;;;5055509;28;19966;-70
2024/01/14 11:44:09;;;;;;;;;;;;;;;;;;5055013;28;19919;-70
2024/01/14 11:46:35;;;;;;;;;;;;;;;;;;5055422;28;19999;-70
2024/01/14 11:49:01;;;;;;;;;;;;;;;;;;5055397;28;19958;-70
2024/01/14 11:51:27;;;;;;;;;;;;;;;;;;5054620;28;20335;-71
2024/01/14 11:53:53;;;;;;;;;;;;;;;;;;5055000;28;19912;-71
2024/01/14 11:56:19;;;;;;;;;;;;;;;;;;5055216;28;19920;-71
2024/01/14 11:58:45;;;;;;;;;;;;;;;;;;5054854;28;19920;-70
2024/01/14 12:01:11;;;;;;;;;;;;;;;;;;5053868;28;19909;-70
2024/01/14 12:03:38;;;;;;;;;;;;;;;;;;5055294;28;19913;-70
2024/01/14 12:06:04;;;;;;;;;;;;;;;;;;5054642;28;20388;-70
2024/01/14 12:08:32;;;;;;;;;;;;;;;;;;5054495;28;20209;-70
2024/01/14 12:10:58;;;;;;;;;;;;;;;;;;5053671;28;20312;-70
2024/01/14 12:13:24;;;;;;;;;;;;;;;;;;5054539;28;19928;-71
2024/01/14 12:15:50;;;;;;;;;;;;;;;;;;5055311;28;20353;-70
2024/01/14 12:18:16;;;;;;;;;;;;;;;;;;5054837;28;20361;-70
2024/01/14 12:20:43;;;;;;;;;;;;;;;;;;5054399;28;20293;-70
2024/01/14 12:23:09;;;;;;;;;;;;;;;;;;5054675;28;19905;-70
2024/01/14 12:25:37;;;;;;;;;;;;;;;;;;5054732;28;19913;-70
2024/01/14 12:28:04;;;;;;;;;;;;;;;;;;5053680;28;20125;-70
2024/01/14 12:30:30;;;;;;;;;;;;;;;;;;5055075;28;20035;-70
2024/01/14 12:32:56;;;;;;;;;;;;;;;;;;5054161;28;20380;-70
2024/01/14 12:35:22;;;;;;;;;;;;;;;;;;5054520;28;19909;-71
2024/01/14 12:37:48;;;;;;;;;;;;;;;;;;5053195;28;19962;-70
2024/01/14 12:40:14;;;;;;;;;;;;;;;;;;5054180;28;20400;-70
2024/01/14 12:42:39;;;;;;;;;;;;;;;;;;5053146;28;20357;-70
2024/01/14 12:45:05;;;;;;;;;;;;;;;;;;5054229;28;20324;-70
2024/01/14 12:47:31;;;;;;;;;;;;;;;;;;5052616;28;19909;-70
2024/01/14 12:49:58;;;;;;;;;;;;;;;;;;5052937;28;20322;-70
2024/01/14 12:52:23;;;;;;;;;;;;;;;;;;5052890;28;19952;-70
2024/01/14 12:54:49;;;;;;;;;;;;;;;;;;5053778;28;20427;-70
2024/01/14 12:57:15;;;;;;;;;;;;;;;;;;5054016;28;19982;-70
2024/01/14 12:59:42;;;;;;;;;;;;;;;;;;5054343;28;19909;-70
2024/01/14 13:02:08;;;;;;;;;;;;;;;;;;5053767;28;20004;-70
2024/01/14 13:04:34;;;;;;;;;;;;;;;;;;5053020;28;19943;-70
2024/01/14 13:07:00;;;;;;;;;;;;;;;;;;5054021;28;19908;-70
2024/01/14 13:09:26;;;;;;;;;;;;;;;;;;5053856;28;20091;-70
2024/01/14 13:11:52;;;;;;;;;;;;;;;;;;5053977;28;19916;-70
2024/01/14 13:14:18;;;;;;;;;;;;;;;;;;5053835;28;19908;-70
2024/01/14 13:16:44;;;;;;;;;;;;;;;;;;5053535;28;19920;-70
2024/01/14 13:19:10;;;;;;;;;;;;;;;;;;5054209;28;19909;-70
2024/01/14 13:21:36;;;;;;;;;;;;;;;;;;5054383;28;19909;-70
2024/01/14 13:24:02;;;;;;;;;;;;;;;;;;5052086;28;19947;-70
2024/01/14 13:26:28;;;;;;;;;;;;;;;;;;5053821;28;19916;-70
2024/01/14 13:28:59;;;;;;;;;;;;;;;;;;5053811;28;19999;-70
2024/01/14 13:31:25;;;;;;;;;;;;;;;;;;5053640;28;20000;-70
2024/01/14 13:33:51;;;;;;;;;;;;;;;;;;5053753;28;20250;-70
2024/01/14 13:36:17;;;;;;;;;;;;;;;;;;5053244;28;20039;-70
2024/01/14 13:38:43;;;;;;;;;;;;;;;;;;5052334;28;19909;-71
2024/01/14 13:41:09;;;;;;;;;;;;;;;;;;5053656;28;19908;-70
2024/01/14 13:43:35;;;;;;;;;;;;;;;;;;5053138;28;19913;-70
2024/01/14 13:46:02;;;;;;;;;;;;;;;;;;5053588;28;19913;-70
2024/01/14 13:48:28;;;;;;;;;;;;;;;;;;5054069;28;19909;-70
2024/01/14 13:50:54;;;;;;;;;;;;;;;;;;5053082;28;19913;-70
2024/01/14 13:53:20;;;;;;;;;;;;;;;;;;5053469;28;19909;-70
2024/01/14 13:55:46;;;;;;;;;;;;;;;;;;5052066;28;19916;-70
2024/01/14 13:58:12;;;;;;;;;;;;;;;;;;5052956;28;19916;-70
2024/01/14 14:00:38;;;;;;;;;;;;;;;;;;5052422;28;19909;-70
2024/01/14 14:03:04;;;;;;;;;;;;;;;;;;5052158;28;20361;-71
2024/01/14 14:05:30;;;;;;;;;;;;;;;;;;5052882;28;19942;-71
2024/01/14 14:07:56;;;;;;;;;;;;;;;;;;5053369;28;19916;-70
2024/01/14 14:10:22;;;;;;;;;;;;;;;;;;5052162;28;19916;-70
2024/01/14 14:12:48;;;;;;;;;;;;;;;;;;5053066;28;20349;-69
2024/01/14 14:15:14;;;;;;;;;;;;;;;;;;5054458;28;19974;-70
2024/01/14 14:17:41;;;;;;;;;;;;;;;;;;5055916;28;19912;-70
2024/01/14 14:20:10;;;;;;;;;;;;;;;;;;5056703;28;19909;-70
2024/01/14 14:22:36;;;;;;;;;;;;;;;;;;5057124;28;19962;-70
2024/01/14 14:25:03;;;;;;;;;;;;;;;;;;5056923;28;20022;-70
2024/01/14 14:27:29;;;;;;;;;;;;;;;;;;5056561;28;20313;-70
2024/01/14 14:29:55;;;;;;;;;;;;;;;;;;5055664;28;20006;-70
2024/01/14 14:32:21;;;;;;;;;;;;;;;;;;5056544;28;20362;-70
2024/01/14 14:34:47;;;;;;;;;;;;;;;;;;5056720;28;19962;-71
2024/01/14 14:37:13;;;;;;;;;;;;;;;;;;5057293;28;19952;-70
2024/01/14 14:39:39;;;;;;;;;;;;;;;;;;5056350;28;19940;-71
2024/01/14 14:42:06;;;;;;;;;;;;;;;;;;5056851;28;19908;-70
2024/01/14 14:44:34;;;;;;;;;;;;;;;;;;5055372;28;19917;-69
2024/01/14 14:47:00;;;;;;;;;;;;;;;;;;5056288;28;19909;-71
2024/01/14 14:49:29;;;;;;;;;;;;;;;;;;5056485;28;19937;-70
2024/01/14 14:51:55;;;;;;;;;;;;;;;;;;5056789;28;19944;-70
2024/01/14 14:54:22;;;;;;;;;;;;;;;;;;5056326;28;20265;-70
2024/01/14 14:56:48;;;;;;;;;;;;;;;;;;5056256;28;19925;-69
2024/01/14 14:59:14;;;;;;;;;;;;;;;;;;5056537;28;19913;-71
2024/01/14 15:01:41;;;;;;;;;;;;;;;;;;5055838;28;19908;-71
2024/01/14 15:04:07;;;;;;;;;;;;;;;;;;5056122;28;20015;-69
2024/01/14 15:06:33;;;;;;;;;;;;;;;;;;5056844;28;19916;-68
2024/01/14 15:08:59;;;;;;;;;;;;;;;;;;5055780;28;19909;-69
2024/01/14 15:11:25;;;;;;;;;;;;;;;;;;5056179;28;19954;-69
2024/01/14 15:13:51;;;;;;;;;;;;;;;;;;5056028;28;19909;-71
2024/01/14 15:16:17;;;;;;;;;;;;;;;;;;5054355;28;19909;-68
2024/01/14 15:18:43;;;;;;;;;;;;;;;;;;5056022;28;19913;-70
2024/01/14 15:21:09;;;;;;;;;;;;;;;;;;5055918;28;19909;-70
2024/01/14 15:23:35;;;;;;;;;;;;;;;;;;5054101;28;20003;-70
2024/01/14 15:26:02;;;;;;;;;;;;;;;;;;5054509;28;20385;-70
2024/01/14 15:28:28;;;;;;;;;;;;;;;;;;5055088;28;19909;-70
2024/01/14 15:30:56;;;;;;;;;;;;;;;;;;5055609;28;19909;-70
2024/01/14 15:33:22;;;;;;;;;;;;;;;;;;5055703;28;19927;-68
2024/01/14 15:35:48;;;;;;;;;;;;;;;;;;5055171;28;19912;-70
2024/01/14 15:38:14;;;;;;;;;;;;;;;;;;5054309;28;19912;-70
2024/01/14 15:40:40;;;;;;;;;;;;;;;;;;5055476;28;19955;-70
2024/01/14 15:43:06;;;;;;;;;;;;;;;;;;5055022;28;20001;-70
2024/01/14 15:45:32;;;;;;;;;;;;;;;;;;5055783;28;19917;-70
2024/01/14 15:48:00;;;;;;;;;;;;;;;;;;5055468;28;19916;-70
2024/01/14 15:50:28;;;;;;;;;;;;;;;;;;5054835;28;19932;-70
2024/01/14 15:52:55;;;;;;;;;;;;;;;;;;5055473;28;19909;-70
2024/01/14 15:55:21;;;;;;;;;;;;;;;;;;5053891;28;20316;-69
2024/01/14 15:57:48;;;;;;;;;;;;;;;;;;5055150;28;19992;-70
2024/01/14 16:00:15;;;;;;;;;;;;;;;;;;5055802;28;19963;-69
2024/01/14 16:02:42;;;;;;;;;;;;;;;;;;5055187;28;19938;-69
2024/01/14 16:05:08;;;;;;;;;;;;;;;;;;5054838;28;19917;-69
2024/01/14 16:07:34;;;;;;;;;;;;;;;;;;5055421;28;19920;-69
2024/01/14 16:10:04;;;;;;;;;;;;;;;;;;5053712;28;19909;-69
2024/01/14 16:12:33;;;;;;;;;;;;;;;;;;5054715;28;19917;-69
2024/01/14 16:14:59;;;;;;;;;;;;;;;;;;5054893;28;19915;-70
2024/01/14 16:17:25;;;;;;;;;;;;;;;;;;5055021;28;19909;-69
2024/01/14 16:19:51;;;;;;;;;;;;;;;;;;5054377;28;19935;-69
2024/01/14 16:22:18;;;;;;;;;;;;;;;;;;5055061;28;19948;-69
2024/01/14 16:24:46;;;;;;;;;;;;;;;;;;5053258;28;20014;-69
2024/01/14 16:27:12;;;;;;;;;;;;;;;;;;5054638;28;20366;-69
2024/01/14 16:29:38;;;;;;;;;;;;;;;;;;5055166;28;20376;-69
2024/01/14 16:32:04;;;;;;;;;;;;;;;;;;5053983;28;19912;-68
2024/01/14 16:34:32;;;;;;;;;;;;;;;;;;5053205;28;19916;-69
2024/01/14 16:36:58;;;;;;;;;;;;;;;;;;5054728;28;19916;-68